RUNWAY INFORMATION
Runway Length Width Elevation Displaced
Threshold
Heading | Runway Length Width Elevation Displaced
Threshold
Heading
08L 13829 ft 148 ft 338 ft 0 ft 85 | 26R 13829 ft 148 ft 318 ft 1969 ft 265
08R 8858 ft 197 ft 336 ft 0 ft 85 | 26L 8858 ft 197 ft 316 ft 0 ft 265
09L 8858 ft 197 ft 378 ft 0 ft 85 | 27R 8858 ft 197 ft 392 ft 0 ft 265
09R 13780 ft 148 ft 370 ft 0 ft 86 | 27L 13780 ft 148 ft 387 ft 1969 ft 266

 AIRPORT FREQUENCIES
Type APP Name DE GAULLE Frequency 121.15 MHZ
Type APP Name DE GAULLE Frequency 136.275 MHZ
Type ATIS Name DE GAULLE Frequency 127.125 MHZ
Type DEP Name DE GAULLE Frequency 124.35 MHZ
Type GND Name DE GAULLE Frequency 118.1 MHZ
Type GND Name DE GAULLE Frequency 121.6 MHZ
Type PFLT Name DE GAULLE Frequency 126.65 MHZ
Type TWR Name DE GAULLE Frequency 119.25 MHZ
Type TWR Name DE GAULLE Frequency 120.65 MHZ

 AIRPORT NEAR NAVIGATION AIDS
Type VOR-DME Name Charles de Gaulle Frequency 115350 KHZ
Type VOR-DME Name Charles de Gaulle Frequency 117050 KHZ

 METAR AND TAF INFORMATION
METAR FOR LFPG
ADDS - METARS form results

(1015 UTC 04 June 2023)
Data provider http://aviationweather.gov/metar/data/
 
METAR text: LFPG 041000Z 05013KT 020V080 CAVOK 22/07 Q1019 NOSIG
Conditions at: LFPG (CHARLES DE GAULL, FR) observed 1000 UTC 04 June 2023
Temperature: 22.0°C (72°F)
Dewpoint: 7.0°C (45°F) [RH = 38%]
Pressure (altimeter): 30.09 inches Hg (1019.0 mb)
Winds: from the NE (50 degrees) at 15 MPH (13 knots; 6.7 m/s)
Visibility: 6 or more miles (10+ km)
Ceiling: ceiling and visibility are OK
Clouds: unknown
Weather: no significant weather observed at this time

METAR text: LFPG 040930Z 04011KT CAVOK 21/07 Q1019 NOSIG
Conditions at: LFPG (CHARLES DE GAULL, FR) observed 0930 UTC 04 June 2023
Temperature: 21.0°C (70°F)
Dewpoint: 7.0°C (45°F) [RH = 40%]
Pressure (altimeter): 30.09 inches Hg (1019.0 mb)
Winds: from the NE (40 degrees) at 13 MPH (11 knots; 5.7 m/s)
Visibility: 6 or more miles (10+ km)
Ceiling: ceiling and visibility are OK
Clouds: unknown
Weather: no significant weather observed at this time

Forecast for: LFPG (CHARLES DE GAULL, FR)
Text: TAF LFPG 040500Z 0406/0512 01010KT CAVOK TX26/0415Z TN14/0505Z
Forecast period: 0600 UTC 04 June 2023 to 1200 UTC 05 June 2023
Forecast type: FROM: standard forecast or significant change
Winds: from the N (10 degrees) at 12 MPH (10 knots; 5.1 m/s)
Visibility: 6 or more miles (10+ km)
Ceiling: unknown
Clouds: missing
Weather: no significant weather forecast for this period



© 2013 - 2023, FlightSimLog.org - Powered by Virtual Airlines Manager